createdAt,value
2023-01-11T00:01:01.013Z,18.92
2023-01-11T00:03:30.190Z,14.18
2023-01-11T00:08:28.337Z,11.00
2023-01-11T00:10:56.331Z,12.60
2023-01-11T00:13:24.272Z,18.10
2023-01-11T00:15:52.158Z,11.20
2023-01-11T00:18:20.699Z,9.20
2023-01-11T00:20:48.627Z,10.13
2023-01-11T00:23:16.618Z,11.55
2023-01-11T00:25:44.527Z,10.30
2023-01-11T00:28:12.439Z,9.55
2023-01-11T00:30:40.398Z,10.40
2023-01-11T00:33:11.396Z,15.13
2023-01-11T00:35:39.332Z,15.98
2023-01-11T00:38:07.686Z,8.82
2023-01-11T00:40:35.460Z,12.13
2023-01-11T00:43:22.648Z,12.48
2023-01-11T00:46:19.624Z,11.00
2023-01-11T00:48:47.574Z,12.63
2023-01-11T00:51:15.504Z,13.85
2023-01-11T00:53:43.576Z,19.27
2023-01-11T00:56:11.569Z,12.40
2023-01-11T00:58:39.427Z,18.90
2023-01-11T01:01:08.479Z,15.40
2023-01-11T01:03:36.648Z,14.05
2023-01-11T01:06:04.609Z,13.30
2023-01-11T01:08:32.796Z,13.38
2023-01-11T01:11:00.577Z,10.93
2023-01-11T01:13:46.840Z,11.35
2023-01-11T01:16:15.015Z,10.30
2023-01-11T01:18:42.898Z,7.43
2023-01-11T01:21:10.921Z,9.63
2023-01-11T01:23:38.840Z,9.25
2023-01-11T01:26:07.458Z,10.60
2023-01-11T01:28:35.384Z,10.05
2023-01-11T01:31:03.384Z,9.40
2023-01-11T01:33:31.452Z,9.98
2023-01-11T01:36:01.698Z,16.92
2023-01-11T01:38:30.313Z,24.85
2023-01-11T01:40:58.216Z,42.92
2023-01-11T01:44:06.513Z,32.05
2023-01-11T01:46:34.596Z,30.23
2023-01-11T01:49:12.973Z,28.15
2023-01-11T01:51:49.735Z,21.20
2023-01-11T01:54:27.529Z,17.38
2023-01-11T01:57:13.922Z,30.77
2023-01-11T01:59:42.339Z,27.45
2023-01-11T02:02:12.042Z,41.08
2023-01-11T02:04:44.385Z,19.98
2023-01-11T02:07:19.760Z,24.85
2023-01-11T02:10:11.109Z,16.33
2023-01-11T02:12:45.051Z,10.68
2023-01-11T02:15:14.325Z,9.93
2023-01-11T02:17:42.203Z,11.25
2023-01-11T02:20:31.497Z,16.40
2023-01-11T02:23:36.750Z,19.13
2023-01-11T02:26:39.358Z,14.98
2023-01-11T02:29:26.989Z,12.73
2023-01-11T02:32:06.494Z,12.35
2023-01-11T02:34:38.102Z,16.10
2023-01-11T02:37:31.631Z,13.30
2023-01-11T02:40:17.234Z,8.73
2023-01-11T02:43:13.545Z,12.30
2023-01-11T02:45:59.875Z,14.35
2023-01-11T02:48:59.343Z,18.08
2023-01-11T02:51:43.593Z,19.10
2023-01-11T02:54:13.953Z,14.95
2023-01-11T02:59:38.235Z,14.55
2023-01-11T03:02:06.497Z,18.30
2023-01-11T03:04:38.052Z,14.38
2023-01-11T03:07:15.875Z,13.63
2023-01-11T03:09:46.666Z,12.15
2023-01-11T03:12:52.552Z,6.63
2023-01-11T03:15:40.018Z,5.00
2023-01-11T03:18:35.045Z,5.95
2023-01-11T03:21:09.184Z,7.03
2023-01-11T03:23:49.087Z,6.72
2023-01-11T03:26:16.858Z,6.43
2023-01-11T03:28:44.733Z,33.78
2023-01-11T03:31:21.900Z,14.68
2023-01-11T03:34:29.826Z,9.40
2023-01-11T03:37:03.753Z,5.82
2023-01-11T03:40:04.155Z,5.45
2023-01-11T03:42:35.525Z,4.18
2023-01-11T03:45:04.540Z,4.68
2023-01-11T03:47:34.326Z,4.78
2023-01-11T03:50:11.338Z,4.10
2023-01-11T03:52:42.857Z,5.93
2023-01-11T03:55:15.387Z,8.18
2023-01-11T03:57:51.560Z,7.97
2023-01-11T04:00:24.863Z,7.97
2023-01-11T04:02:54.337Z,7.50
2023-01-11T04:07:50.267Z,6.28
2023-01-11T04:10:18.194Z,9.43
2023-01-11T04:12:48.269Z,14.82
2023-01-11T04:15:17.454Z,15.60
2023-01-11T04:17:45.623Z,28.48
2023-01-11T04:20:14.112Z,28.98
2023-01-11T04:22:42.057Z,27.55
2023-01-11T04:25:10.328Z,26.85
2023-01-11T04:27:38.234Z,29.52
2023-01-11T04:30:06.680Z,27.30
2023-01-11T04:32:34.530Z,16.38
2023-01-11T04:35:02.576Z,10.52
2023-01-11T04:37:30.708Z,8.40
2023-01-11T04:39:58.684Z,12.25
2023-01-11T04:42:27.009Z,19.10
2023-01-11T04:44:55.015Z,19.75
2023-01-11T04:47:24.909Z,27.42
2023-01-11T04:49:53.215Z,46.03
2023-01-11T04:52:21.390Z,52.40
2023-01-11T04:54:52.729Z,50.38
2023-01-11T04:57:21.103Z,59.60
2023-01-11T04:59:49.404Z,62.80
2023-01-11T05:02:17.940Z,51.47
2023-01-11T05:04:45.917Z,42.83
2023-01-11T05:07:13.944Z,43.50
2023-01-11T05:09:41.817Z,33.88
2023-01-11T05:12:09.747Z,28.15
2023-01-11T05:14:37.787Z,26.58
2023-01-11T05:17:05.640Z,28.88
2023-01-11T05:19:33.646Z,34.53
2023-01-11T05:22:01.526Z,61.53
2023-01-11T05:24:29.543Z,64.38
2023-01-11T05:26:57.472Z,58.20
2023-01-11T05:29:25.488Z,56.53
2023-01-11T05:31:53.551Z,57.45
2023-01-11T05:34:21.593Z,68.75
2023-01-11T05:36:49.642Z,68.50
2023-01-11T05:39:17.551Z,82.93
2023-01-11T05:41:45.525Z,83.32
2023-01-11T05:44:34.764Z,61.17
2023-01-11T05:47:02.942Z,51.97
2023-01-11T05:49:31.113Z,62.35
2023-01-11T05:51:59.148Z,69.05
2023-01-11T05:54:27.098Z,54.15
2023-01-11T05:56:57.833Z,55.38
2023-01-11T05:59:27.069Z,51.10
2023-01-11T06:01:55.149Z,50.40
2023-01-11T06:04:23.078Z,45.17
2023-01-11T06:06:51.380Z,38.22
2023-01-11T06:09:19.258Z,42.17
2023-01-11T06:11:47.407Z,37.60
2023-01-11T06:14:15.277Z,49.05
2023-01-11T06:16:43.203Z,43.45
2023-01-11T06:19:11.701Z,39.00
2023-01-11T06:21:40.143Z,37.97
2023-01-11T06:24:08.092Z,49.95
2023-01-11T06:26:36.333Z,47.85
2023-01-11T06:29:04.311Z,44.85
2023-01-11T06:31:32.239Z,52.92
2023-01-11T06:34:00.103Z,75.03
2023-01-11T06:36:29.776Z,97.55
2023-01-11T06:38:58.155Z,87.90
2023-01-11T06:41:26.060Z,83.25
2023-01-11T06:43:54.403Z,46.63
2023-01-11T06:46:22.634Z,31.65
2023-01-11T06:48:50.714Z,14.30
2023-01-11T06:51:18.608Z,65.03
2023-01-11T06:53:46.797Z,58.10
2023-01-11T06:56:19.141Z,57.35
2023-01-11T06:58:48.515Z,56.60
2023-01-11T07:01:18.406Z,45.97
2023-01-11T07:03:46.883Z,46.55
2023-01-11T07:06:14.919Z,38.58
2023-01-11T07:08:42.943Z,46.40
2023-01-11T07:11:11.145Z,55.03
2023-01-11T07:13:39.130Z,47.95
2023-01-11T07:16:07.458Z,56.22
2023-01-11T07:18:35.432Z,55.58
2023-01-11T07:21:03.610Z,76.70
2023-01-11T07:23:31.569Z,69.03
2023-01-11T07:25:59.969Z,57.58
2023-01-11T07:28:28.691Z,37.28
2023-01-11T07:30:59.352Z,59.80
2023-01-11T07:33:28.260Z,69.88
2023-01-11T07:35:56.510Z,54.03
2023-01-11T07:38:24.507Z,57.65
2023-01-11T07:40:54.727Z,49.70
2023-01-11T07:43:23.686Z,55.25
2023-01-11T07:45:53.175Z,41.10
2023-01-11T07:48:26.619Z,42.83
2023-01-11T07:50:55.303Z,18.42
2023-01-11T07:53:26.179Z,15.48
2023-01-11T07:55:57.334Z,13.13
2023-01-11T07:58:25.374Z,8.43
2023-01-11T08:00:53.490Z,8.82
2023-01-11T08:03:21.798Z,7.35
2023-01-11T08:05:51.914Z,7.13
2023-01-11T08:08:20.286Z,33.38
2023-01-11T08:11:09.109Z,7.70
2023-01-11T08:13:55.929Z,11.63
2023-01-11T08:16:23.961Z,8.13
2023-01-11T08:18:53.179Z,5.78
2023-01-11T08:21:24.443Z,18.92
2023-01-11T08:23:59.498Z,10.90
2023-01-11T08:26:28.027Z,8.73
2023-01-11T08:28:56.114Z,5.47
2023-01-11T08:31:24.915Z,5.18
2023-01-11T08:33:53.230Z,6.68
2023-01-11T08:36:21.834Z,7.03
2023-01-11T08:38:49.928Z,11.23
2023-01-11T08:41:17.831Z,14.65
2023-01-11T08:43:46.262Z,10.80
2023-01-11T08:46:14.328Z,7.97
2023-01-11T08:48:43.059Z,11.57
2023-01-11T08:51:11.091Z,18.77
2023-01-11T08:53:39.023Z,6.35
2023-01-11T08:56:07.661Z,9.45
2023-01-11T08:58:36.235Z,10.40
2023-01-11T09:01:08.330Z,8.57
2023-01-11T09:03:36.567Z,7.15
2023-01-11T09:06:04.924Z,6.30
2023-01-11T09:08:32.844Z,5.88
2023-01-11T09:11:01.184Z,5.85
2023-01-11T09:13:29.155Z,9.57
2023-01-11T09:15:58.425Z,9.60
2023-01-11T09:18:27.369Z,9.93
2023-01-11T09:20:55.542Z,10.10
2023-01-11T09:23:23.555Z,7.93
2023-01-11T09:25:51.650Z,11.68
2023-01-11T09:28:19.893Z,10.88
2023-01-11T09:30:47.779Z,9.40
2023-01-11T09:33:15.868Z,8.18
2023-01-11T09:35:46.386Z,7.45
2023-01-11T09:38:14.626Z,7.13
2023-01-11T09:41:08.494Z,6.82
2023-01-11T09:43:46.052Z,12.25
2023-01-11T09:46:15.607Z,10.63
2023-01-11T09:48:48.579Z,16.75
2023-01-11T09:51:19.385Z,28.88
2023-01-11T09:53:54.108Z,13.80
2023-01-11T09:56:25.875Z,23.30
2023-01-11T09:59:19.521Z,18.98
2023-01-11T10:01:53.973Z,21.90
2023-01-11T10:05:11.002Z,13.80
2023-01-11T10:18:34.071Z,14.48
2023-01-11T10:18:41.723Z,38.63
2023-01-11T10:20:24.989Z,14.70
2023-01-11T10:23:00.955Z,12.60
2023-01-11T10:25:39.175Z,10.40
2023-01-11T10:28:17.655Z,13.20
2023-01-11T10:31:08.809Z,22.75
2023-01-11T10:33:48.427Z,24.90
2023-01-11T10:37:07.872Z,16.88
2023-01-11T10:40:24.120Z,11.63
2023-01-11T10:43:03.648Z,13.90
2023-01-11T10:45:43.651Z,36.85
2023-01-11T10:48:38.518Z,17.83
2023-01-11T10:51:42.320Z,20.67
2023-01-11T10:54:18.401Z,14.77
2023-01-11T10:57:08.154Z,16.63
2023-01-11T10:59:36.862Z,9.95
2023-01-11T11:02:39.972Z,8.90
2023-01-11T11:05:48.013Z,6.32
2023-01-11T11:08:36.350Z,8.43
2023-01-11T11:11:14.331Z,9.88
2023-01-11T11:13:49.867Z,8.25
2023-01-11T11:16:23.688Z,6.65
2023-01-11T11:18:58.729Z,7.82
2023-01-11T11:21:35.775Z,16.15
2023-01-11T11:24:27.825Z,25.10
2023-01-11T11:27:03.551Z,8.10
2023-01-11T11:29:31.938Z,16.33
2023-01-11T11:32:01.493Z,14.00
2023-01-11T11:34:31.192Z,23.20
2023-01-11T11:37:00.713Z,5.68
2023-01-11T11:39:31.316Z,14.52
2023-01-11T11:42:18.887Z,7.40
2023-01-11T11:45:10.784Z,7.57
2023-01-11T11:47:38.934Z,8.85
2023-01-11T11:50:31.828Z,8.07
2023-01-11T11:53:07.349Z,11.25
2023-01-11T11:55:35.926Z,8.88
2023-01-11T11:58:08.769Z,8.30
2023-01-11T12:00:45.637Z,10.95
2023-01-11T12:03:26.315Z,9.60
2023-01-11T12:06:01.304Z,9.52
2023-01-11T12:08:32.593Z,17.02
2023-01-11T12:11:07.231Z,16.80
2023-01-11T12:13:42.580Z,9.43
2023-01-11T12:16:22.262Z,8.80
2023-01-11T12:18:50.252Z,11.75
2023-01-11T12:21:27.179Z,36.30
2023-01-11T12:24:17.418Z,25.23
2023-01-11T12:27:00.456Z,10.98
2023-01-11T12:29:45.276Z,21.05
2023-01-11T12:32:22.316Z,13.68
2023-01-11T12:35:06.714Z,22.52
2023-01-11T12:37:53.047Z,11.93
2023-01-11T12:40:27.135Z,17.08
2023-01-11T12:43:19.879Z,32.47
2023-01-11T12:45:57.296Z,8.23
2023-01-11T12:48:45.887Z,14.38
2023-01-11T12:51:31.835Z,14.23
2023-01-11T12:54:09.822Z,14.32
2023-01-11T12:57:15.410Z,18.10
2023-01-11T13:00:08.613Z,11.27
2023-01-11T13:03:04.666Z,14.25
2023-01-11T13:06:17.273Z,14.93
2023-01-11T13:09:03.912Z,8.48
2023-01-11T13:11:39.100Z,10.50
2023-01-11T13:14:25.072Z,19.20
2023-01-11T13:17:05.192Z,48.08
2023-01-11T13:19:57.853Z,15.68
2023-01-11T13:22:32.462Z,40.08
2023-01-11T13:25:05.885Z,15.93
2023-01-11T13:27:34.318Z,21.00
2023-01-11T13:30:03.128Z,17.83
2023-01-11T13:32:37.513Z,40.47
2023-01-11T13:35:09.747Z,36.65
2023-01-11T13:37:43.524Z,16.55
2023-01-11T13:40:29.335Z,110.25
2023-01-11T13:43:20.179Z,92.53
2023-01-11T13:46:04.462Z,59.45
2023-01-11T13:48:40.760Z,55.15
2023-01-11T13:51:23.671Z,12.20
2023-01-11T13:54:16.911Z,16.27
2023-01-11T13:56:58.562Z,8.25
2023-01-11T14:02:39.572Z,9.63
2023-01-11T14:05:18.425Z,8.10
2023-01-11T14:08:01.136Z,8.18
2023-01-11T14:11:01.460Z,11.20
2023-01-11T14:14:18.510Z,22.83
2023-01-11T14:16:55.624Z,6.40
2023-01-11T14:19:31.468Z,9.93
2023-01-11T14:22:17.730Z,23.70
2023-01-11T14:25:07.478Z,12.23
2023-01-11T14:27:55.325Z,11.60
2023-01-11T14:31:01.304Z,20.45
2023-01-11T14:33:56.622Z,14.15
2023-01-11T14:37:06.405Z,48.92
2023-01-11T14:40:00.900Z,21.80
2023-01-11T14:43:03.318Z,8.90
2023-01-11T14:45:44.735Z,10.60
2023-01-11T14:48:31.010Z,10.80
2023-01-11T14:51:46.662Z,11.85
2023-01-11T14:54:22.943Z,8.75
2023-01-11T14:56:54.769Z,9.50
2023-01-11T14:59:33.280Z,9.77
2023-01-11T15:02:04.271Z,16.85
2023-01-11T15:05:04.936Z,16.17
2023-01-11T15:07:33.561Z,8.07
2023-01-11T15:10:04.792Z,9.30
2023-01-11T15:12:37.589Z,13.00
2023-01-11T15:15:07.813Z,11.65
2023-01-11T15:17:54.260Z,13.45
2023-01-11T15:20:25.145Z,21.65
2023-01-11T15:23:01.894Z,37.63
2023-01-11T15:25:33.845Z,29.58
2023-01-11T15:28:31.137Z,25.00
2023-01-11T15:30:59.440Z,30.52
2023-01-11T15:33:28.578Z,23.48
2023-01-11T15:35:56.825Z,26.83
2023-01-11T15:38:49.796Z,24.23
2023-01-11T15:41:39.835Z,33.15
2023-01-11T15:44:41.308Z,25.27
2023-01-11T15:47:18.234Z,25.35
2023-01-11T15:50:13.301Z,34.92
2023-01-11T15:53:00.367Z,24.08
2023-01-11T15:55:41.818Z,31.73
2023-01-11T15:58:28.770Z,44.20
2023-01-11T16:01:12.752Z,29.40
2023-01-11T16:04:11.767Z,26.42
2023-01-11T16:06:58.359Z,45.00
2023-01-11T16:09:51.505Z,30.95
2023-01-11T16:12:48.989Z,30.23
2023-01-11T16:15:19.937Z,33.20
2023-01-11T16:17:48.518Z,14.85
2023-01-11T16:20:19.669Z,10.35
2023-01-11T16:22:58.470Z,10.95
2023-01-11T16:25:30.952Z,15.77
2023-01-11T16:28:00.677Z,12.43
2023-01-11T16:30:29.703Z,15.07
2023-01-11T16:33:31.986Z,12.82
2023-01-11T16:36:21.564Z,13.57
2023-01-11T16:39:07.452Z,14.52
2023-01-11T16:41:51.841Z,16.20
2023-01-11T16:44:45.930Z,9.50
2023-01-11T16:47:17.088Z,10.50
2023-01-11T16:49:49.580Z,12.52
2023-01-11T16:52:35.173Z,11.10
2023-01-11T16:55:30.455Z,11.82
2023-01-11T16:58:02.684Z,11.85
2023-01-11T17:00:36.491Z,11.13
2023-01-11T17:03:19.434Z,13.02
2023-01-11T17:06:08.296Z,11.43
2023-01-11T17:08:38.950Z,14.45
2023-01-11T17:11:44.904Z,12.05
2023-01-11T17:14:19.022Z,11.15
2023-01-11T17:16:54.370Z,12.70
2023-01-11T17:19:26.993Z,15.23
2023-01-11T17:22:03.707Z,13.35
2023-01-11T17:24:41.574Z,13.18
2023-01-11T17:27:20.204Z,17.98
2023-01-11T17:29:52.367Z,12.45
2023-01-11T17:32:41.718Z,15.75
2023-01-11T17:35:22.713Z,13.80
2023-01-11T17:37:55.100Z,43.05
2023-01-11T17:40:38.694Z,20.35
2023-01-11T17:43:36.584Z,39.38
2023-01-11T17:46:06.667Z,19.38
2023-01-11T17:48:35.590Z,26.00
2023-01-11T17:51:06.256Z,24.10
2023-01-11T17:53:36.455Z,29.33
2023-01-11T17:56:32.094Z,26.25
2023-01-11T17:59:19.482Z,87.50
2023-01-11T18:01:52.942Z,36.58
2023-01-11T18:04:23.550Z,21.80
2023-01-11T18:06:55.957Z,18.15
2023-01-11T18:09:30.207Z,31.10
2023-01-11T18:12:33.104Z,20.73
2023-01-11T18:15:05.052Z,24.42
2023-01-11T18:17:35.304Z,21.00
2023-01-11T18:20:29.790Z,17.38
2023-01-11T18:23:04.718Z,27.65
2023-01-11T18:25:35.391Z,30.17
2023-01-11T18:28:21.299Z,17.13
2023-01-11T18:30:54.183Z,19.25
2023-01-11T18:33:25.414Z,15.55
2023-01-11T18:35:58.488Z,19.48
2023-01-11T18:38:36.432Z,24.58
2023-01-11T18:41:32.418Z,30.15
2023-01-11T18:44:01.779Z,31.75
2023-01-11T18:46:30.216Z,36.25
2023-01-11T18:48:58.699Z,23.20
2023-01-11T18:51:35.742Z,19.83
2023-01-11T18:54:04.455Z,27.27
2023-01-11T18:56:32.902Z,21.60
2023-01-11T18:59:01.218Z,17.08
2023-01-11T19:01:33.193Z,23.17
2023-01-11T19:04:04.080Z,20.77
2023-01-11T19:06:32.901Z,17.73
2023-01-11T19:09:02.035Z,20.60
2023-01-11T19:11:31.275Z,19.55
2023-01-11T19:16:27.900Z,17.73
2023-01-11T19:18:56.284Z,23.77
2023-01-11T19:21:25.018Z,28.33
2023-01-11T19:23:53.533Z,23.92
2023-01-11T19:26:22.107Z,21.73
2023-01-11T19:28:50.659Z,21.33
2023-01-11T19:31:19.839Z,16.40
2023-01-11T19:33:48.416Z,20.98
2023-01-11T19:36:17.057Z,17.95
2023-01-11T19:38:45.391Z,18.00
2023-01-11T19:41:17.264Z,18.88
2023-01-11T19:43:45.891Z,17.88
2023-01-11T19:46:25.864Z,16.92
2023-01-11T19:49:00.296Z,18.20
2023-01-11T19:51:28.811Z,17.63
2023-01-11T19:53:57.031Z,18.92
2023-01-11T19:56:25.383Z,16.35
2023-01-11T19:58:54.125Z,17.38
2023-01-11T20:01:22.749Z,14.93
2023-01-11T20:03:51.197Z,15.77
2023-01-11T20:06:19.617Z,15.75
2023-01-11T20:08:48.139Z,16.85
2023-01-11T20:11:16.739Z,20.20
2023-01-11T20:13:50.937Z,18.77
2023-01-11T20:16:22.734Z,15.80
2023-01-11T20:18:56.440Z,14.10
2023-01-11T20:21:27.882Z,17.50
2023-01-11T20:23:59.244Z,13.38
2023-01-11T20:26:30.871Z,12.73
2023-01-11T20:29:00.830Z,14.30
2023-01-11T20:31:32.547Z,12.95
2023-01-11T20:34:14.977Z,12.52
2023-01-11T20:36:44.634Z,11.15
2023-01-11T20:39:13.124Z,13.23
2023-01-11T20:41:47.609Z,17.08
2023-01-11T20:44:32.255Z,12.77
2023-01-11T20:47:01.852Z,11.35
2023-01-11T20:49:30.679Z,13.73
2023-01-11T20:51:59.195Z,13.52
2023-01-11T20:54:27.964Z,15.75
2023-01-11T20:57:01.494Z,11.45
2023-01-11T20:59:32.615Z,11.68
2023-01-11T21:02:00.909Z,14.90
2023-01-11T21:04:29.498Z,14.57
2023-01-11T21:06:58.099Z,14.73
2023-01-11T21:09:26.421Z,10.75
2023-01-11T21:11:54.937Z,11.90
2023-01-11T21:14:23.498Z,13.02
2023-01-11T21:16:55.303Z,10.90
2023-01-11T21:19:23.447Z,11.95
2023-01-11T21:21:54.054Z,9.07
2023-01-11T21:24:22.652Z,9.77
2023-01-11T21:29:33.771Z,9.10
2023-01-11T21:32:06.458Z,11.32
2023-01-11T21:34:34.631Z,9.70
2023-01-11T21:37:02.525Z,8.85
2023-01-11T21:39:31.781Z,7.72
2023-01-11T21:42:00.022Z,9.02
2023-01-11T21:44:35.144Z,10.02
2023-01-11T21:47:05.909Z,11.30
2023-01-11T21:49:35.159Z,8.45
2023-01-11T21:54:33.397Z,11.45
2023-01-11T21:57:01.267Z,10.75
2023-01-11T21:59:30.293Z,13.85
2023-01-11T22:01:58.362Z,13.90
2023-01-11T22:04:26.335Z,18.35
2023-01-11T22:06:55.511Z,14.68
2023-01-11T22:09:28.519Z,15.32
2023-01-11T22:11:56.303Z,15.10
2023-01-11T22:14:24.335Z,10.20
2023-01-11T22:16:53.436Z,10.27
2023-01-11T22:19:21.318Z,11.15
2023-01-11T22:21:49.245Z,9.85
2023-01-11T22:24:18.098Z,9.02
2023-01-11T22:26:46.383Z,10.85
2023-01-11T22:29:17.138Z,11.23
2023-01-11T22:31:55.177Z,14.63
2023-01-11T22:34:23.724Z,11.18
2023-01-11T22:38:55.695Z,8.85
2023-01-11T22:41:28.010Z,12.95
2023-01-11T22:43:55.913Z,9.38
2023-01-11T22:46:26.326Z,13.02
2023-01-11T22:48:54.243Z,15.93
2023-01-11T22:51:25.144Z,27.83
2023-01-11T22:53:54.709Z,20.33
2023-01-11T22:56:25.901Z,31.17
2023-01-11T22:58:54.884Z,16.60
2023-01-11T23:01:26.608Z,16.00
2023-01-11T23:03:56.152Z,14.63
2023-01-11T23:06:28.890Z,15.77
2023-01-11T23:08:57.471Z,15.88
2023-01-11T23:11:56.177Z,11.98
2023-01-11T23:14:29.743Z,11.15
2023-01-11T23:17:19.350Z,8.48
2023-01-11T23:19:47.369Z,9.95
2023-01-11T23:22:16.010Z,10.60
2023-01-11T23:24:44.033Z,12.40
2023-01-11T23:27:12.417Z,11.10
2023-01-11T23:29:40.266Z,11.10
2023-01-11T23:32:08.659Z,11.82
2023-01-11T23:34:36.501Z,14.30
2023-01-11T23:37:05.375Z,11.07
2023-01-11T23:39:33.428Z,10.23
2023-01-11T23:42:20.203Z,11.32
2023-01-11T23:44:48.241Z,12.05
2023-01-11T23:47:22.404Z,9.68
2023-01-11T23:49:53.590Z,9.68
2023-01-11T23:52:25.109Z,13.65
2023-01-11T23:54:53.328Z,13.43
2023-01-11T23:57:22.253Z,13.68
2023-01-11T23:59:50.404Z,15.48
